sensor_id;sensor_type;location;lat;lon;timestamp;P1;durP1;ratioP1;P2;durP2;ratioP2
21254;SDS011;10785;50.674;17.954;2024-03-02T00:01:53;10.98;;;9.00;;
21254;SDS011;10785;50.674;17.954;2024-03-02T00:04:36;10.55;;;9.55;;
21254;SDS011;10785;50.674;17.954;2024-03-02T00:07:24;22.50;;;10.82;;
21254;SDS011;10785;50.674;17.954;2024-03-02T00:10:10;12.65;;;11.15;;
21254;SDS011;10785;50.674;17.954;2024-03-02T00:13:08;14.05;;;12.20;;
21254;SDS011;10785;50.674;17.954;2024-03-02T00:15:52;16.30;;;11.98;;
21254;SDS011;10785;50.674;17.954;2024-03-02T00:18:38;14.68;;;11.50;;
21254;SDS011;10785;50.674;17.954;2024-03-02T00:21:24;15.63;;;13.40;;
21254;SDS011;10785;50.674;17.954;2024-03-02T00:24:12;10.50;;;9.50;;
21254;SDS011;10785;50.674;17.954;2024-03-02T00:27:04;12.20;;;11.02;;
21254;SDS011;10785;50.674;17.954;2024-03-02T00:29:42;16.65;;;12.63;;
21254;SDS011;10785;50.674;17.954;2024-03-02T00:32:21;11.88;;;10.52;;
21254;SDS011;10785;50.674;17.954;2024-03-02T00:35:00;11.95;;;9.65;;
21254;SDS011;10785;50.674;17.954;2024-03-02T00:37:43;18.52;;;11.80;;
21254;SDS011;10785;50.674;17.954;2024-03-02T00:40:30;9.35;;;8.50;;
21254;SDS011;10785;50.674;17.954;2024-03-02T00:46:37;23.15;;;15.82;;
21254;SDS011;10785;50.674;17.954;2024-03-02T00:49:21;13.20;;;9.77;;
21254;SDS011;10785;50.674;17.954;2024-03-02T00:52:06;6.38;;;5.78;;
21254;SDS011;10785;50.674;17.954;2024-03-02T00:54:55;9.30;;;7.57;;
21254;SDS011;10785;50.674;17.954;2024-03-02T00:57:37;12.45;;;8.77;;
21254;SDS011;10785;50.674;17.954;2024-03-02T01:00:29;12.02;;;10.63;;
21254;SDS011;10785;50.674;17.954;2024-03-02T01:03:13;10.63;;;9.55;;
21254;SDS011;10785;50.674;17.954;2024-03-02T01:05:59;16.23;;;11.45;;
21254;SDS011;10785;50.674;17.954;2024-03-02T01:08:42;16.25;;;8.35;;
21254;SDS011;10785;50.674;17.954;2024-03-02T01:11:31;14.75;;;13.23;;
21254;SDS011;10785;50.674;17.954;2024-03-02T01:14:07;19.40;;;12.20;;
21254;SDS011;10785;50.674;17.954;2024-03-02T01:16:52;11.07;;;10.18;;
21254;SDS011;10785;50.674;17.954;2024-03-02T01:19:29;11.48;;;9.75;;
21254;SDS011;10785;50.674;17.954;2024-03-02T01:22:08;15.57;;;12.65;;
21254;SDS011;10785;50.674;17.954;2024-03-02T01:24:56;21.45;;;9.02;;
21254;SDS011;10785;50.674;17.954;2024-03-02T01:27:43;16.13;;;11.38;;
21254;SDS011;10785;50.674;17.954;2024-03-02T01:30:31;8.88;;;7.85;;
21254;SDS011;10785;50.674;17.954;2024-03-02T01:33:13;26.05;;;9.02;;
21254;SDS011;10785;50.674;17.954;2024-03-02T01:35:48;15.88;;;12.30;;
21254;SDS011;10785;50.674;17.954;2024-03-02T01:38:30;18.63;;;11.63;;
21254;SDS011;10785;50.674;17.954;2024-03-02T01:41:07;12.50;;;10.32;;
21254;SDS011;10785;50.674;17.954;2024-03-02T01:43:52;12.38;;;8.70;;
21254;SDS011;10785;50.674;17.954;2024-03-02T01:46:39;8.25;;;7.45;;
21254;SDS011;10785;50.674;17.954;2024-03-02T01:49:14;17.98;;;12.65;;
21254;SDS011;10785;50.674;17.954;2024-03-02T01:51:56;13.77;;;11.48;;
21254;SDS011;10785;50.674;17.954;2024-03-02T01:54:35;9.02;;;8.05;;
21254;SDS011;10785;50.674;17.954;2024-03-02T01:57:17;9.85;;;7.60;;
21254;SDS011;10785;50.674;17.954;2024-03-02T02:00:05;10.60;;;9.18;;
21254;SDS011;10785;50.674;17.954;2024-03-02T02:02:53;10.27;;;9.30;;
21254;SDS011;10785;50.674;17.954;2024-03-02T02:05:36;21.35;;;13.05;;
21254;SDS011;10785;50.674;17.954;2024-03-02T02:08:13;11.93;;;8.15;;
21254;SDS011;10785;50.674;17.954;2024-03-02T02:10:50;13.35;;;11.70;;
21254;SDS011;10785;50.674;17.954;2024-03-02T02:13:38;12.23;;;10.90;;
21254;SDS011;10785;50.674;17.954;2024-03-02T02:16:23;21.20;;;9.77;;
21254;SDS011;10785;50.674;17.954;2024-03-02T02:18:59;9.60;;;8.10;;
21254;SDS011;10785;50.674;17.954;2024-03-02T02:21:50;11.25;;;10.20;;
21254;SDS011;10785;50.674;17.954;2024-03-02T02:24:27;15.00;;;9.73;;
21254;SDS011;10785;50.674;17.954;2024-03-02T02:27:12;7.55;;;6.93;;
21254;SDS011;10785;50.674;17.954;2024-03-02T02:29:51;14.77;;;10.02;;
21254;SDS011;10785;50.674;17.954;2024-03-02T02:32:31;10.40;;;6.72;;
21254;SDS011;10785;50.674;17.954;2024-03-02T02:35:07;8.85;;;6.63;;
21254;SDS011;10785;50.674;17.954;2024-03-02T02:37:48;49.83;;;9.23;;
21254;SDS011;10785;50.674;17.954;2024-03-02T02:40:23;14.32;;;10.88;;
21254;SDS011;10785;50.674;17.954;2024-03-02T02:43:04;8.20;;;7.68;;
21254;SDS011;10785;50.674;17.954;2024-03-02T02:45:42;11.40;;;10.00;;
21254;SDS011;10785;50.674;17.954;2024-03-02T02:48:25;12.25;;;9.52;;
21254;SDS011;10785;50.674;17.954;2024-03-02T02:51:12;15.57;;;10.30;;
21254;SDS011;10785;50.674;17.954;2024-03-02T02:54:06;11.35;;;9.05;;
21254;SDS011;10785;50.674;17.954;2024-03-02T02:56:43;21.42;;;11.50;;
21254;SDS011;10785;50.674;17.954;2024-03-02T02:59:23;13.80;;;8.85;;
21254;SDS011;10785;50.674;17.954;2024-03-02T03:02:12;12.32;;;8.38;;
21254;SDS011;10785;50.674;17.954;2024-03-02T03:04:48;10.18;;;9.20;;
21254;SDS011;10785;50.674;17.954;2024-03-02T03:07:40;15.48;;;10.45;;
21254;SDS011;10785;50.674;17.954;2024-03-02T03:10:28;9.95;;;7.45;;
21254;SDS011;10785;50.674;17.954;2024-03-02T03:13:07;18.25;;;8.85;;
21254;SDS011;10785;50.674;17.954;2024-03-02T03:15:40;10.65;;;9.60;;
21254;SDS011;10785;50.674;17.954;2024-03-02T03:18:19;14.23;;;10.20;;
21254;SDS011;10785;50.674;17.954;2024-03-02T03:20:59;12.48;;;8.70;;
21254;SDS011;10785;50.674;17.954;2024-03-02T03:23:37;21.77;;;12.52;;
21254;SDS011;10785;50.674;17.954;2024-03-02T03:26:13;12.20;;;9.90;;
21254;SDS011;10785;50.674;17.954;2024-03-02T03:28:46;12.70;;;9.13;;
21254;SDS011;10785;50.674;17.954;2024-03-02T03:31:28;16.55;;;10.63;;
21254;SDS011;10785;50.674;17.954;2024-03-02T03:34:04;21.10;;;13.65;;
21254;SDS011;10785;50.674;17.954;2024-03-02T03:36:45;13.23;;;10.52;;
21254;SDS011;10785;50.674;17.954;2024-03-02T03:39:28;21.98;;;11.90;;
21254;SDS011;10785;50.674;17.954;2024-03-02T03:42:15;12.05;;;10.65;;
21254;SDS011;10785;50.674;17.954;2024-03-02T03:44:57;8.82;;;8.05;;
21254;SDS011;10785;50.674;17.954;2024-03-02T03:47:40;10.95;;;9.85;;
21254;SDS011;10785;50.674;17.954;2024-03-02T03:50:24;18.70;;;10.60;;
21254;SDS011;10785;50.674;17.954;2024-03-02T03:53:13;25.40;;;9.50;;
21254;SDS011;10785;50.674;17.954;2024-03-02T03:56:06;9.88;;;8.73;;
21254;SDS011;10785;50.674;17.954;2024-03-02T03:58:57;7.43;;;6.72;;
21254;SDS011;10785;50.674;17.954;2024-03-02T04:01:42;7.90;;;7.10;;
21254;SDS011;10785;50.674;17.954;2024-03-02T04:04:31;18.42;;;7.20;;
21254;SDS011;10785;50.674;17.954;2024-03-02T04:07:24;5.38;;;4.97;;
21254;SDS011;10785;50.674;17.954;2024-03-02T04:10:14;13.05;;;7.43;;
21254;SDS011;10785;50.674;17.954;2024-03-02T04:13:00;20.80;;;10.52;;
21254;SDS011;10785;50.674;17.954;2024-03-02T04:15:46;15.73;;;10.23;;
21254;SDS011;10785;50.674;17.954;2024-03-02T04:18:28;8.18;;;6.70;;
21254;SDS011;10785;50.674;17.954;2024-03-02T04:21:13;7.13;;;6.35;;
21254;SDS011;10785;50.674;17.954;2024-03-02T04:24:03;7.45;;;6.72;;
21254;SDS011;10785;50.674;17.954;2024-03-02T04:26:38;12.55;;;8.13;;
21254;SDS011;10785;50.674;17.954;2024-03-02T04:29:27;11.90;;;10.90;;
21254;SDS011;10785;50.674;17.954;2024-03-02T04:32:23;6.63;;;6.07;;
21254;SDS011;10785;50.674;17.954;2024-03-02T04:35:11;8.10;;;7.40;;
21254;SDS011;10785;50.674;17.954;2024-03-02T04:37:58;11.48;;;9.18;;
21254;SDS011;10785;50.674;17.954;2024-03-02T04:40:47;10.55;;;9.30;;
21254;SDS011;10785;50.674;17.954;2024-03-02T04:43:30;5.65;;;5.03;;
21254;SDS011;10785;50.674;17.954;2024-03-02T04:46:19;11.25;;;6.95;;
21254;SDS011;10785;50.674;17.954;2024-03-02T04:49:12;5.95;;;5.43;;
21254;SDS011;10785;50.674;17.954;2024-03-02T04:52:02;7.30;;;6.57;;
21254;SDS011;10785;50.674;17.954;2024-03-02T04:55:02;6.55;;;6.07;;
21254;SDS011;10785;50.674;17.954;2024-03-02T04:58:02;8.82;;;7.97;;
21254;SDS011;10785;50.674;17.954;2024-03-02T05:00:44;14.23;;;8.70;;
21254;SDS011;10785;50.674;17.954;2024-03-02T05:03:24;10.23;;;7.25;;
21254;SDS011;10785;50.674;17.954;2024-03-02T05:06:15;8.05;;;7.35;;
21254;SDS011;10785;50.674;17.954;2024-03-02T05:09:02;6.55;;;6.00;;
21254;SDS011;10785;50.674;17.954;2024-03-02T05:11:46;7.00;;;6.25;;
21254;SDS011;10785;50.674;17.954;2024-03-02T05:14:46;5.15;;;4.75;;
21254;SDS011;10785;50.674;17.954;2024-03-02T05:17:18;8.15;;;7.53;;
21254;SDS011;10785;50.674;17.954;2024-03-02T05:19:50;8.07;;;6.65;;
21254;SDS011;10785;50.674;17.954;2024-03-02T05:22:37;7.95;;;7.30;;
21254;SDS011;10785;50.674;17.954;2024-03-02T05:25:23;8.75;;;8.00;;
21254;SDS011;10785;50.674;17.954;2024-03-02T05:28:11;7.35;;;6.75;;
21254;SDS011;10785;50.674;17.954;2024-03-02T05:30:56;9.20;;;8.30;;
21254;SDS011;10785;50.674;17.954;2024-03-02T05:33:49;9.95;;;8.20;;
21254;SDS011;10785;50.674;17.954;2024-03-02T05:36:36;8.52;;;7.90;;
21254;SDS011;10785;50.674;17.954;2024-03-02T05:39:21;9.43;;;8.48;;
21254;SDS011;10785;50.674;17.954;2024-03-02T05:41:57;23.10;;;10.15;;
21254;SDS011;10785;50.674;17.954;2024-03-02T05:44:31;8.13;;;7.35;;
21254;SDS011;10785;50.674;17.954;2024-03-02T05:47:06;9.10;;;8.13;;
21254;SDS011;10785;50.674;17.954;2024-03-02T05:49:36;13.48;;;8.93;;
21254;SDS011;10785;50.674;17.954;2024-03-02T05:52:10;10.20;;;9.20;;
21254;SDS011;10785;50.674;17.954;2024-03-02T05:54:58;11.65;;;8.45;;
21254;SDS011;10785;50.674;17.954;2024-03-02T05:57:45;10.60;;;7.50;;
21254;SDS011;10785;50.674;17.954;2024-03-02T06:00:39;8.25;;;7.50;;
21254;SDS011;10785;50.674;17.954;2024-03-02T06:03:17;7.63;;;7.13;;
21254;SDS011;10785;50.674;17.954;2024-03-02T06:05:48;8.48;;;7.47;;
21254;SDS011;10785;50.674;17.954;2024-03-02T06:08:20;8.35;;;7.63;;
21254;SDS011;10785;50.674;17.954;2024-03-02T06:10:55;15.63;;;9.35;;
21254;SDS011;10785;50.674;17.954;2024-03-02T06:13:29;11.80;;;10.65;;
21254;SDS011;10785;50.674;17.954;2024-03-02T06:16:02;10.63;;;8.68;;
21254;SDS011;10785;50.674;17.954;2024-03-02T06:18:40;6.97;;;6.38;;
21254;SDS011;10785;50.674;17.954;2024-03-02T06:21:17;17.83;;;10.55;;
21254;SDS011;10785;50.674;17.954;2024-03-02T06:24:07;9.43;;;6.30;;
21254;SDS011;10785;50.674;17.954;2024-03-02T06:26:45;8.57;;;7.70;;
21254;SDS011;10785;50.674;17.954;2024-03-02T06:29:23;8.10;;;7.32;;
21254;SDS011;10785;50.674;17.954;2024-03-02T06:32:10;11.25;;;10.13;;
21254;SDS011;10785;50.674;17.954;2024-03-02T06:34:54;8.13;;;7.53;;
21254;SDS011;10785;50.674;17.954;2024-03-02T06:37:31;9.98;;;8.82;;
21254;SDS011;10785;50.674;17.954;2024-03-02T06:40:01;11.82;;;8.32;;
21254;SDS011;10785;50.674;17.954;2024-03-02T06:42:40;7.15;;;6.28;;
21254;SDS011;10785;50.674;17.954;2024-03-02T06:45:17;8.05;;;7.32;;
21254;SDS011;10785;50.674;17.954;2024-03-02T06:47:48;10.18;;;8.93;;
21254;SDS011;10785;50.674;17.954;2024-03-02T06:50:19;9.05;;;8.13;;
21254;SDS011;10785;50.674;17.954;2024-03-02T06:52:55;10.35;;;9.25;;
21254;SDS011;10785;50.674;17.954;2024-03-02T06:55:33;6.28;;;5.57;;
21254;SDS011;10785;50.674;17.954;2024-03-02T06:58:13;9.68;;;5.18;;
21254;SDS011;10785;50.674;17.954;2024-03-02T07:00:54;13.82;;;7.20;;
21254;SDS011;10785;50.674;17.954;2024-03-02T07:03:23;7.35;;;6.75;;
21254;SDS011;10785;50.674;17.954;2024-03-02T07:05:52;7.72;;;5.25;;
21254;SDS011;10785;50.674;17.954;2024-03-02T07:08:24;9.40;;;7.00;;
21254;SDS011;10785;50.674;17.954;2024-03-02T07:10:56;9.07;;;7.38;;
21254;SDS011;10785;50.674;17.954;2024-03-02T07:13:27;19.17;;;9.18;;
21254;SDS011;10785;50.674;17.954;2024-03-02T07:15:57;12.38;;;7.97;;
21254;SDS011;10785;50.674;17.954;2024-03-02T07:19:13;5.75;;;5.00;;
21254;SDS011;10785;50.674;17.954;2024-03-02T07:21:46;9.10;;;6.65;;
21254;SDS011;10785;50.674;17.954;2024-03-02T07:24:30;8.70;;;7.70;;
21254;SDS011;10785;50.674;17.954;2024-03-02T07:26:59;8.48;;;6.93;;
21254;SDS011;10785;50.674;17.954;2024-03-02T07:29:32;7.68;;;6.93;;
21254;SDS011;10785;50.674;17.954;2024-03-02T07:32:02;9.23;;;8.35;;
21254;SDS011;10785;50.674;17.954;2024-03-02T07:34:36;10.15;;;5.97;;
21254;SDS011;10785;50.674;17.954;2024-03-02T07:37:15;9.88;;;7.10;;
21254;SDS011;10785;50.674;17.954;2024-03-02T07:40:00;5.20;;;4.32;;
21254;SDS011;10785;50.674;17.954;2024-03-02T07:42:36;12.38;;;6.28;;
21254;SDS011;10785;50.674;17.954;2024-03-02T07:45:09;12.18;;;8.13;;
21254;SDS011;10785;50.674;17.954;2024-03-02T07:47:44;15.35;;;6.43;;
21254;SDS011;10785;50.674;17.954;2024-03-02T07:50:28;5.32;;;4.88;;
21254;SDS011;10785;50.674;17.954;2024-03-02T07:53:09;13.75;;;7.78;;
21254;SDS011;10785;50.674;17.954;2024-03-02T07:55:46;9.20;;;6.68;;
21254;SDS011;10785;50.674;17.954;2024-03-02T07:58:33;8.13;;;7.30;;
21254;SDS011;10785;50.674;17.954;2024-03-02T08:01:09;6.70;;;5.47;;
21254;SDS011;10785;50.674;17.954;2024-03-02T08:03:43;11.88;;;7.07;;
21254;SDS011;10785;50.674;17.954;2024-03-02T08:06:25;12.95;;;6.90;;
21254;SDS011;10785;50.674;17.954;2024-03-02T08:09:05;18.90;;;6.38;;
21254;SDS011;10785;50.674;17.954;2024-03-02T08:11:42;7.50;;;6.03;;
21254;SDS011;10785;50.674;17.954;2024-03-02T08:14:19;9.35;;;6.28;;
21254;SDS011;10785;50.674;17.954;2024-03-02T08:16:51;10.15;;;7.32;;
21254;SDS011;10785;50.674;17.954;2024-03-02T08:19:34;8.85;;;5.28;;
21254;SDS011;10785;50.674;17.954;2024-03-02T08:22:08;4.85;;;4.40;;
21254;SDS011;10785;50.674;17.954;2024-03-02T08:24:43;10.68;;;7.78;;
21254;SDS011;10785;50.674;17.954;2024-03-02T08:27:32;4.55;;;4.05;;
21254;SDS011;10785;50.674;17.954;2024-03-02T08:30:02;6.47;;;5.85;;
21254;SDS011;10785;50.674;17.954;2024-03-02T08:32:38;12.77;;;6.38;;
21254;SDS011;10785;50.674;17.954;2024-03-02T08:35:12;5.85;;;5.28;;
21254;SDS011;10785;50.674;17.954;2024-03-02T08:37:49;21.67;;;5.97;;
21254;SDS011;10785;50.674;17.954;2024-03-02T08:40:29;9.43;;;6.55;;
21254;SDS011;10785;50.674;17.954;2024-03-02T08:43:07;8.30;;;5.63;;
21254;SDS011;10785;50.674;17.954;2024-03-02T08:45:45;10.45;;;5.70;;
21254;SDS011;10785;50.674;17.954;2024-03-02T08:48:20;9.93;;;5.85;;
21254;SDS011;10785;50.674;17.954;2024-03-02T08:50:57;8.70;;;7.80;;
21254;SDS011;10785;50.674;17.954;2024-03-02T08:53:39;7.68;;;5.75;;
21254;SDS011;10785;50.674;17.954;2024-03-02T08:56:19;13.93;;;10.02;;
21254;SDS011;10785;50.674;17.954;2024-03-02T08:58:55;13.40;;;5.18;;
21254;SDS011;10785;50.674;17.954;2024-03-02T09:01:38;6.22;;;5.65;;
21254;SDS011;10785;50.674;17.954;2024-03-02T09:04:22;6.10;;;5.55;;
21254;SDS011;10785;50.674;17.954;2024-03-02T09:07:05;7.93;;;6.13;;
21254;SDS011;10785;50.674;17.954;2024-03-02T09:09:47;6.38;;;5.75;;
21254;SDS011;10785;50.674;17.954;2024-03-02T09:12:35;6.82;;;4.57;;
21254;SDS011;10785;50.674;17.954;2024-03-02T09:15:20;17.05;;;8.40;;
21254;SDS011;10785;50.674;17.954;2024-03-02T09:17:55;10.15;;;6.82;;
21254;SDS011;10785;50.674;17.954;2024-03-02T09:20:30;9.98;;;5.90;;
21254;SDS011;10785;50.674;17.954;2024-03-02T09:23:23;25.10;;;8.32;;
21254;SDS011;10785;50.674;17.954;2024-03-02T09:26:13;5.53;;;4.38;;
21254;SDS011;10785;50.674;17.954;2024-03-02T09:28:54;8.07;;;5.57;;
21254;SDS011;10785;50.674;17.954;2024-03-02T09:31:27;9.70;;;7.55;;
21254;SDS011;10785;50.674;17.954;2024-03-02T09:34:11;6.72;;;6.10;;
21254;SDS011;10785;50.674;17.954;2024-03-02T09:36:45;6.68;;;4.07;;
21254;SDS011;10785;50.674;17.954;2024-03-02T09:39:32;7.03;;;6.35;;
21254;SDS011;10785;50.674;17.954;2024-03-02T09:42:21;4.65;;;4.18;;
21254;SDS011;10785;50.674;17.954;2024-03-02T09:45:02;4.68;;;4.25;;
21254;SDS011;10785;50.674;17.954;2024-03-02T09:47:42;10.85;;;4.30;;
21254;SDS011;10785;50.674;17.954;2024-03-02T09:50:16;9.48;;;6.82;;
21254;SDS011;10785;50.674;17.954;2024-03-02T09:52:52;9.52;;;4.63;;
21254;SDS011;10785;50.674;17.954;2024-03-02T09:55:24;5.93;;;5.05;;
21254;SDS011;10785;50.674;17.954;2024-03-02T09:57:56;11.68;;;4.60;;
21254;SDS011;10785;50.674;17.954;2024-03-02T10:00:30;8.35;;;6.25;;
21254;SDS011;10785;50.674;17.954;2024-03-02T10:03:00;13.63;;;4.22;;
21254;SDS011;10785;50.674;17.954;2024-03-02T10:05:42;5.00;;;3.95;;
21254;SDS011;10785;50.674;17.954;2024-03-02T10:08:18;4.55;;;3.92;;
21254;SDS011;10785;50.674;17.954;2024-03-02T10:10:51;5.93;;;5.25;;
21254;SDS011;10785;50.674;17.954;2024-03-02T10:13:32;10.35;;;6.40;;
21254;SDS011;10785;50.674;17.954;2024-03-02T10:16:16;9.05;;;5.72;;
21254;SDS011;10785;50.674;17.954;2024-03-02T10:18:56;6.78;;;4.57;;
21254;SDS011;10785;50.674;17.954;2024-03-02T10:21:37;5.18;;;4.70;;
21254;SDS011;10785;50.674;17.954;2024-03-02T10:24:16;3.70;;;2.92;;
21254;SDS011;10785;50.674;17.954;2024-03-02T10:26:50;7.80;;;4.05;;
21254;SDS011;10785;50.674;17.954;2024-03-02T10:29:23;5.15;;;3.67;;
21254;SDS011;10785;50.674;17.954;2024-03-02T10:31:57;8.73;;;2.72;;
21254;SDS011;10785;50.674;17.954;2024-03-02T10:34:32;15.23;;;5.47;;
21254;SDS011;10785;50.674;17.954;2024-03-02T10:37:10;14.38;;;5.35;;
21254;SDS011;10785;50.674;17.954;2024-03-02T10:39:46;7.72;;;4.22;;
21254;SDS011;10785;50.674;17.954;2024-03-02T10:42:18;5.35;;;4.68;;
21254;SDS011;10785;50.674;17.954;2024-03-02T10:45:03;7.88;;;4.35;;
21254;SDS011;10785;50.674;17.954;2024-03-02T10:47:38;5.13;;;4.65;;
21254;SDS011;10785;50.674;17.954;2024-03-02T10:50:18;10.68;;;5.00;;
21254;SDS011;10785;50.674;17.954;2024-03-02T10:52:49;5.53;;;3.58;;
21254;SDS011;10785;50.674;17.954;2024-03-02T10:55:29;20.23;;;4.38;;
21254;SDS011;10785;50.674;17.954;2024-03-02T10:58:04;11.05;;;3.75;;
21254;SDS011;10785;50.674;17.954;2024-03-02T11:00:52;5.03;;;4.38;;
21254;SDS011;10785;50.674;17.954;2024-03-02T11:03:29;5.30;;;3.70;;
21254;SDS011;10785;50.674;17.954;2024-03-02T11:06:15;6.85;;;3.58;;
21254;SDS011;10785;50.674;17.954;2024-03-02T11:08:49;11.90;;;5.82;;
21254;SDS011;10785;50.674;17.954;2024-03-02T11:11:29;8.18;;;4.50;;
21254;SDS011;10785;50.674;17.954;2024-03-02T11:14:14;6.00;;;4.15;;
21254;SDS011;10785;50.674;17.954;2024-03-02T11:16:58;4.85;;;4.40;;
21254;SDS011;10785;50.674;17.954;2024-03-02T11:19:39;17.20;;;4.50;;
21254;SDS011;10785;50.674;17.954;2024-03-02T11:22:14;6.30;;;2.88;;
21254;SDS011;10785;50.674;17.954;2024-03-02T11:24:55;5.32;;;2.95;;
21254;SDS011;10785;50.674;17.954;2024-03-02T11:30:50;3.38;;;2.97;;
21254;SDS011;10785;50.674;17.954;2024-03-02T11:33:34;5.18;;;4.47;;
21254;SDS011;10785;50.674;17.954;2024-03-02T11:36:11;3.92;;;3.25;;
21254;SDS011;10785;50.674;17.954;2024-03-02T11:38:52;4.95;;;2.83;;
21254;SDS011;10785;50.674;17.954;2024-03-02T11:41:25;3.42;;;2.95;;
21254;SDS011;10785;50.674;17.954;2024-03-02T11:44:05;4.05;;;2.75;;
21254;SDS011;10785;50.674;17.954;2024-03-02T11:46:45;8.98;;;3.78;;
21254;SDS011;10785;50.674;17.954;2024-03-02T11:49:28;5.25;;;3.58;;
21254;SDS011;10785;50.674;17.954;2024-03-02T11:52:14;2.60;;;2.40;;
21254;SDS011;10785;50.674;17.954;2024-03-02T11:54:48;3.00;;;2.80;;
21254;SDS011;10785;50.674;17.954;2024-03-02T11:57:27;7.97;;;3.08;;
21254;SDS011;10785;50.674;17.954;2024-03-02T11:59:59;8.20;;;2.83;;
21254;SDS011;10785;50.674;17.954;2024-03-02T12:02:37;6.68;;;4.70;;
21254;SDS011;10785;50.674;17.954;2024-03-02T12:05:21;6.13;;;3.28;;
21254;SDS011;10785;50.674;17.954;2024-03-02T12:07:57;5.50;;;4.97;;
21254;SDS011;10785;50.674;17.954;2024-03-02T12:10:36;8.25;;;4.38;;
21254;SDS011;10785;50.674;17.954;2024-03-02T12:13:12;6.28;;;5.32;;
21254;SDS011;10785;50.674;17.954;2024-03-02T12:15:45;6.97;;;5.63;;
21254;SDS011;10785;50.674;17.954;2024-03-02T12:18:19;4.82;;;3.47;;
21254;SDS011;10785;50.674;17.954;2024-03-02T12:21:07;3.90;;;3.53;;
21254;SDS011;10785;50.674;17.954;2024-03-02T12:23:47;14.80;;;6.13;;
21254;SDS011;10785;50.674;17.954;2024-03-02T12:26:23;5.55;;;5.15;;
21254;SDS011;10785;50.674;17.954;2024-03-02T12:29:00;5.65;;;4.45;;
21254;SDS011;10785;50.674;17.954;2024-03-02T12:31:37;9.15;;;4.90;;
21254;SDS011;10785;50.674;17.954;2024-03-02T12:34:13;12.65;;;4.03;;
21254;SDS011;10785;50.674;17.954;2024-03-02T12:36:53;6.75;;;5.03;;
21254;SDS011;10785;50.674;17.954;2024-03-02T12:39:26;6.15;;;4.28;;
21254;SDS011;10785;50.674;17.954;2024-03-02T12:42:02;2.92;;;2.72;;
21254;SDS011;10785;50.674;17.954;2024-03-02T12:44:38;6.70;;;4.60;;
21254;SDS011;10785;50.674;17.954;2024-03-02T12:47:14;4.45;;;3.92;;
21254;SDS011;10785;50.674;17.954;2024-03-02T12:49:44;4.13;;;3.45;;
21254;SDS011;10785;50.674;17.954;2024-03-02T12:52:26;3.92;;;3.58;;
21254;SDS011;10785;50.674;17.954;2024-03-02T12:55:11;15.32;;;4.53;;
21254;SDS011;10785;50.674;17.954;2024-03-02T12:57:49;6.63;;;3.53;;
21254;SDS011;10785;50.674;17.954;2024-03-02T13:00:23;4.15;;;3.30;;
21254;SDS011;10785;50.674;17.954;2024-03-02T13:02:56;9.30;;;5.15;;
21254;SDS011;10785;50.674;17.954;2024-03-02T13:05:31;5.43;;;2.53;;
21254;SDS011;10785;50.674;17.954;2024-03-02T13:08:11;2.70;;;2.40;;
21254;SDS011;10785;50.674;17.954;2024-03-02T13:10:45;6.35;;;3.65;;
21254;SDS011;10785;50.674;17.954;2024-03-02T13:13:19;4.63;;;3.95;;
21254;SDS011;10785;50.674;17.954;2024-03-02T13:15:54;17.00;;;4.35;;
21254;SDS011;10785;50.674;17.954;2024-03-02T13:18:25;7.10;;;5.07;;
21254;SDS011;10785;50.674;17.954;2024-03-02T13:20:55;5.03;;;3.70;;
21254;SDS011;10785;50.674;17.954;2024-03-02T13:23:29;8.65;;;5.10;;
21254;SDS011;10785;50.674;17.954;2024-03-02T13:25:58;3.65;;;3.40;;
21254;SDS011;10785;50.674;17.954;2024-03-02T13:28:33;7.10;;;5.15;;
21254;SDS011;10785;50.674;17.954;2024-03-02T13:31:05;8.60;;;4.38;;
21254;SDS011;10785;50.674;17.954;2024-03-02T13:33:42;11.60;;;6.03;;
21254;SDS011;10785;50.674;17.954;2024-03-02T13:36:22;4.35;;;3.78;;
21254;SDS011;10785;50.674;17.954;2024-03-02T13:39:02;5.70;;;5.10;;
21254;SDS011;10785;50.674;17.954;2024-03-02T13:41:38;4.90;;;4.32;;
21254;SDS011;10785;50.674;17.954;2024-03-02T13:44:25;8.63;;;5.55;;
21254;SDS011;10785;50.674;17.954;2024-03-02T13:47:02;10.57;;;5.07;;
21254;SDS011;10785;50.674;17.954;2024-03-02T13:49:37;11.43;;;7.03;;
21254;SDS011;10785;50.674;17.954;2024-03-02T13:52:21;4.57;;;4.18;;
21254;SDS011;10785;50.674;17.954;2024-03-02T13:55:03;5.85;;;5.35;;
21254;SDS011;10785;50.674;17.954;2024-03-02T13:57:41;9.65;;;5.63;;
21254;SDS011;10785;50.674;17.954;2024-03-02T14:00:20;9.95;;;7.20;;
21254;SDS011;10785;50.674;17.954;2024-03-02T14:03:01;6.15;;;5.55;;
21254;SDS011;10785;50.674;17.954;2024-03-02T14:05:36;7.35;;;4.05;;
21254;SDS011;10785;50.674;17.954;2024-03-02T14:08:12;15.60;;;5.80;;
21254;SDS011;10785;50.674;17.954;2024-03-02T14:10:56;4.13;;;3.78;;
21254;SDS011;10785;50.674;17.954;2024-03-02T14:13:34;13.20;;;5.78;;
21254;SDS011;10785;50.674;17.954;2024-03-02T14:16:05;5.43;;;4.93;;
21254;SDS011;10785;50.674;17.954;2024-03-02T14:18:37;4.35;;;3.95;;
21254;SDS011;10785;50.674;17.954;2024-03-02T14:21:21;11.90;;;6.75;;
21254;SDS011;10785;50.674;17.954;2024-03-02T14:24:02;6.68;;;3.83;;
21254;SDS011;10785;50.674;17.954;2024-03-02T14:26:38;6.93;;;4.15;;
21254;SDS011;10785;50.674;17.954;2024-03-02T14:29:13;4.03;;;3.72;;
21254;SDS011;10785;50.674;17.954;2024-03-02T14:31:50;8.38;;;4.05;;
21254;SDS011;10785;50.674;17.954;2024-03-02T14:34:26;3.25;;;2.40;;
21254;SDS011;10785;50.674;17.954;2024-03-02T14:37:04;6.32;;;4.15;;
21254;SDS011;10785;50.674;17.954;2024-03-02T14:39:43;2.78;;;2.65;;
21254;SDS011;10785;50.674;17.954;2024-03-02T14:42:25;6.70;;;4.60;;
21254;SDS011;10785;50.674;17.954;2024-03-02T14:45:12;5.05;;;3.72;;
21254;SDS011;10785;50.674;17.954;2024-03-02T14:47:54;2.60;;;2.40;;
21254;SDS011;10785;50.674;17.954;2024-03-02T14:50:34;3.58;;;2.65;;
21254;SDS011;10785;50.674;17.954;2024-03-02T14:53:04;2.95;;;2.53;;
21254;SDS011;10785;50.674;17.954;2024-03-02T14:55:34;3.90;;;3.25;;
21254;SDS011;10785;50.674;17.954;2024-03-02T14:58:05;2.60;;;2.15;;
21254;SDS011;10785;50.674;17.954;2024-03-02T15:00:35;1.83;;;1.73;;
21254;SDS011;10785;50.674;17.954;2024-03-02T15:03:04;2.08;;;1.85;;
21254;SDS011;10785;50.674;17.954;2024-03-02T15:05:35;5.93;;;1.52;;
21254;SDS011;10785;50.674;17.954;2024-03-02T15:08:05;2.05;;;1.85;;
21254;SDS011;10785;50.674;17.954;2024-03-02T15:10:34;3.22;;;2.92;;
21254;SDS011;10785;50.674;17.954;2024-03-02T15:13:05;1.25;;;1.25;;
21254;SDS011;10785;50.674;17.954;2024-03-02T15:15:35;4.00;;;1.80;;
21254;SDS011;10785;50.674;17.954;2024-03-02T15:18:05;3.08;;;2.88;;
21254;SDS011;10785;50.674;17.954;2024-03-02T15:20:35;3.75;;;2.38;;
21254;SDS011;10785;50.674;17.954;2024-03-02T15:23:04;1.80;;;1.52;;
21254;SDS011;10785;50.674;17.954;2024-03-02T15:25:34;4.07;;;2.83;;
21254;SDS011;10785;50.674;17.954;2024-03-02T15:28:04;1.42;;;1.30;;
21254;SDS011;10785;50.674;17.954;2024-03-02T15:30:35;4.07;;;2.90;;
21254;SDS011;10785;50.674;17.954;2024-03-02T15:33:04;2.20;;;2.08;;
21254;SDS011;10785;50.674;17.954;2024-03-02T15:35:34;5.65;;;1.73;;
21254;SDS011;10785;50.674;17.954;2024-03-02T15:38:04;3.10;;;2.80;;
21254;SDS011;10785;50.674;17.954;2024-03-02T15:40:43;1.27;;;1.00;;
21254;SDS011;10785;50.674;17.954;2024-03-02T15:43:15;1.13;;;1.13;;
21254;SDS011;10785;50.674;17.954;2024-03-02T15:45:44;1.20;;;1.15;;
21254;SDS011;10785;50.674;17.954;2024-03-02T15:48:13;1.45;;;1.35;;